Southside, Alabama
Current Conditions -  °F | °C
As of 8:15 AM on Friday 19 Dec 2014 (Local Time) from KGAD Reporting Station
Clear Clear  
Wind Chill: 37°   Ceiling: Unl
Heat Index: 37°   Visibility: 10mi
Dew Point: 34°   Wind: 0mph
Humidity: 87%   Direction: NA
Pressure: 30.23"   Gusts: NA
Location:  33.8947°N, 86.0122°W
Report Text: KGAD 191415Z 00000KT 10SM CLR 03/01 A3023 RMK AO1
Loading
Personal Weather Stations






























Interactive Weather Map New forecast layout! Learn more

10-Day Weather Forecast

Advertisements
Track Severe Weather on mobile